Time;durP1;ratioP1;P1;durP2;ratioP2;P2;SDS_P1;SDS_P2;PMS_P1;PMS_P2;Temp;Humidity;BMP_temperature;BMP_pressure;BME280_temperature;BME280_humidity;BME280_pressure;Samples;Min_cycle;Max_cycle;Signal;HPM_P1;HPM_P2
2022/05/24 00:02:06;;;;;;;29.88;19.58;;;15.90;78.70;;;;;;5011490;28;20893;-74
2022/05/24 00:04:31;;;;;;;26.43;18.33;;;15.80;81.50;;;;;;5010512;28;20393;-74
2022/05/24 00:06:58;;;;;;;28.03;19.77;;;15.80;82.10;;;;;;5011025;28;20401;-74
2022/05/24 00:09:24;;;;;;;26.25;19.58;;;15.90;78.70;;;;;;5011313;28;20409;-74
2022/05/24 00:11:50;;;;;;;27.10;19.63;;;15.90;80.10;;;;;;5015496;28;20424;-73
2022/05/24 00:14:15;;;;;;;30.73;20.90;;;15.80;80.30;;;;;;5015439;28;20754;-74
2022/05/24 00:16:41;;;;;;;26.67;19.50;;;15.80;80.50;;;;;;5011307;28;20430;-76
2022/05/24 00:19:06;;;;;;;33.50;21.38;;;15.80;82.70;;;;;;5005352;28;20495;-74
2022/05/24 00:21:32;;;;;;;30.83;22.60;;;15.80;86.90;;;;;;5011280;28;20404;-74
2022/05/24 00:23:59;;;;;;;32.90;23.07;;;15.90;87.50;;;;;;5010905;28;20401;-75
2022/05/24 00:26:32;;;;;;;34.63;24.10;;;15.90;88.20;;;;;;5010600;28;20519;-76
2022/05/24 00:28:58;;;;;;;37.47;23.30;;;15.90;88.60;;;;;;5010297;28;20399;-74
2022/05/24 00:31:23;;;;;;;33.87;24.50;;;15.80;89.30;;;;;;5010790;28;20688;-75
2022/05/24 00:33:49;;;;;;;33.92;24.23;;;15.80;91.70;;;;;;5010971;28;20392;-75
2022/05/24 00:36:16;;;;;;;37.17;25.33;;;15.70;93.40;;;;;;5011454;28;20462;-74
2022/05/24 00:38:42;;;;;;;35.20;24.80;;;15.60;95.60;;;;;;5009718;28;20940;-75
2022/05/24 00:41:24;;;;;;;34.30;23.48;;;15.70;96.30;;;;;;5010941;28;20408;-74
2022/05/24 00:43:56;;;;;;;38.70;26.23;;;15.70;93.70;;;;;;5010392;28;20405;-74
2022/05/24 00:46:25;;;;;;;33.38;23.73;;;15.80;94.80;;;;;;5013100;28;20774;-75
2022/05/24 00:49:04;;;;;;;32.95;22.70;;;15.80;94.10;;;;;;5010315;28;20878;-75
2022/05/24 00:51:55;;;;;;;34.83;24.20;;;15.70;94.60;;;;;;5010735;28;20802;-75
2022/05/24 00:54:21;;;;;;;35.03;23.42;;;15.70;97.10;;;;;;5011700;28;20495;-74
2022/05/24 00:56:50;;;;;;;35.08;23.08;;;15.70;98.10;;;;;;5010817;28;20961;-74
2022/05/24 00:59:30;;;;;;;32.13;22.10;;;15.80;96.00;;;;;;5006116;28;20870;-74
2022/05/24 01:01:56;;;;;;;32.25;23.23;;;15.90;91.90;;;;;;5011114;28;20400;-75
2022/05/24 01:04:22;;;;;;;39.33;22.10;;;15.90;91.80;;;;;;5026889;28;20462;-75
2022/05/24 01:06:49;;;;;;;34.43;22.90;;;15.90;92.20;;;;;;5010104;28;20432;-75
2022/05/24 01:09:21;;;;;;;33.00;23.00;;;15.90;91.50;;;;;;5011348;28;20416;-73
2022/05/24 01:11:51;;;;;;;32.70;22.53;;;15.90;91.10;;;;;;5010837;28;20476;-76
2022/05/24 01:14:19;;;;;;;33.45;22.98;;;15.80;92.30;;;;;;5005120;28;20392;-74
2022/05/24 01:16:45;;;;;;;38.60;24.45;;;15.80;93.00;;;;;;5007701;28;20890;-74
2022/05/24 01:19:20;;;;;;;34.80;23.30;;;15.80;93.10;;;;;;5008602;28;20413;-75
2022/05/24 01:21:47;;;;;;;33.95;22.55;;;15.80;88.50;;;;;;5010064;28;20487;-74
2022/05/24 01:24:20;;;;;;;32.28;22.30;;;15.90;85.80;;;;;;5010590;28;20400;-74
2022/05/24 01:26:49;;;;;;;35.07;22.33;;;15.90;84.40;;;;;;5009860;28;20409;-74
2022/05/24 01:29:16;;;;;;;35.33;21.70;;;15.90;83.50;;;;;;5004635;28;20757;-74
2022/05/24 01:37:14;;;;;;;31.10;22.02;;;16.00;84.00;;;;;;5004242;28;20411;-73
2022/05/24 01:39:43;;;;;;;32.80;21.75;;;16.00;79.20;;;;;;5010337;28;20401;-75
2022/05/24 01:42:10;;;;;;;31.17;20.45;;;16.00;77.70;;;;;;5009586;28;20401;-74
2022/05/24 01:44:47;;;;;;;32.95;21.10;;;16.10;80.00;;;;;;5010604;28;20396;-75
2022/05/24 01:47:15;;;;;;;29.65;20.33;;;16.00;79.00;;;;;;5017267;28;20957;-74
2022/05/24 01:49:45;;;;;;;31.13;20.58;;;16.10;76.80;;;;;;5007948;28;20451;-75
2022/05/24 01:52:19;;;;;;;32.63;20.70;;;16.00;77.10;;;;;;5010501;28;20937;-75
2022/05/24 01:54:50;;;;;;;30.65;21.15;;;16.00;76.60;;;;;;5009715;28;20422;-74
2022/05/24 01:57:28;;;;;;;31.53;19.83;;;15.90;75.80;;;;;;5010391;28;20919;-74
2022/05/24 01:59:57;;;;;;;29.67;20.40;;;15.90;77.40;;;;;;5013430;28;20895;-74
2022/05/24 02:02:23;;;;;;;31.23;20.40;;;15.90;78.10;;;;;;5016176;28;20403;-74
2022/05/24 02:04:48;;;;;;;26.88;19.40;;;15.80;76.70;;;;;;5014154;28;20396;-73
2022/05/24 02:07:20;;;;;;;31.60;21.08;;;15.80;79.30;;;;;;5013566;28;20408;-73
2022/05/24 02:09:48;;;;;;;29.90;19.50;;;15.80;80.60;;;;;;5012307;28;20788;-74
2022/05/24 02:12:20;;;;;;;26.27;17.00;;;15.80;78.60;;;;;;5017434;28;20773;-73
2022/05/24 02:14:51;;;;;;;25.15;15.70;;;15.80;69.40;;;;;;5017038;28;20754;-74
2022/05/24 02:17:24;;;;;;;27.45;15.77;;;15.80;67.20;;;;;;5019279;28;20459;-75
2022/05/24 02:20:02;;;;;;;22.30;14.80;;;15.70;66.20;;;;;;5016402;28;20404;-74
2022/05/24 02:22:29;;;;;;;24.27;14.57;;;15.70;65.60;;;;;;5013551;28;20424;-75
2022/05/24 02:24:58;;;;;;;20.40;13.25;;;15.70;65.30;;;;;;5017672;28;20392;-75
2022/05/24 02:27:25;;;;;;;23.98;13.48;;;15.60;65.20;;;;;;5016627;28;20424;-75
2022/05/24 02:29:50;;;;;;;20.42;11.90;;;15.60;65.00;;;;;;5012601;28;20418;-72
2022/05/24 02:32:16;;;;;;;26.53;13.23;;;15.60;62.60;;;;;;5014233;28;20727;-74
2022/05/24 02:34:42;;;;;;;17.80;12.10;;;15.50;63.80;;;;;;5014326;28;20465;-74
2022/05/24 02:37:07;;;;;;;17.60;12.15;;;15.50;62.70;;;;;;5013366;28;20774;-74
2022/05/24 02:41:28;;;;;;;21.38;12.75;;;15.50;63.90;;;;;;5014058;28;20786;-74
2022/05/24 02:42:18;;;;;;;20.07;11.87;;;15.40;65.30;;;;;;5013682;28;20400;-74
2022/05/24 02:44:44;;;;;;;20.03;12.60;;;15.40;65.20;;;;;;5013505;28;20397;-74
2022/05/24 02:47:09;;;;;;;22.07;12.37;;;15.30;65.50;;;;;;5019209;28;20409;-74
2022/05/24 02:49:35;;;;;;;22.38;13.20;;;15.20;67.60;;;;;;5028053;28;20750;-73
2022/05/24 02:52:00;;;;;;;19.13;12.87;;;15.30;65.80;;;;;;5012908;28;21904;-73
2022/05/24 02:54:26;;;;;;;17.97;12.47;;;15.20;65.30;;;;;;5012360;28;20761;-73
2022/05/24 02:56:51;;;;;;;19.80;12.77;;;15.20;64.70;;;;;;5013377;28;20451;-73
2022/05/24 02:59:17;;;;;;;21.25;12.50;;;15.20;62.20;;;;;;5010775;28;20437;-73
2022/05/24 03:01:43;;;;;;;24.00;11.38;;;15.20;64.80;;;;;;5012815;28;20401;-73
2022/05/24 03:04:08;;;;;;;21.00;10.57;;;15.00;64.80;;;;;;5011953;28;20407;-73
2022/05/24 03:09:33;;;;;;;18.10;9.60;;;15.00;62.00;;;;;;5013173;28;20400;-73
2022/05/24 03:09:35;;;;;;;15.35;9.82;;;14.80;64.10;;;;;;5012460;28;20499;-73
2022/05/24 03:14:49;;;;;;;17.67;9.00;;;14.70;63.90;;;;;;5012064;28;20483;-73
2022/05/24 03:17:16;;;;;;;14.60;8.93;;;14.60;65.90;;;;;;5012629;28;20397;-73
2022/05/24 03:19:42;;;;;;;16.55;8.95;;;14.60;65.40;;;;;;5011941;28;20397;-73
2022/05/24 03:22:09;;;;;;;20.77;9.50;;;14.50;68.30;;;;;;5011736;28;20400;-74
2022/05/24 03:24:35;;;;;;;18.38;9.10;;;14.50;65.50;;;;;;5008735;28;20395;-74
2022/05/24 03:27:01;;;;;;;15.77;9.98;;;14.40;67.10;;;;;;5012053;28;20733;-74
2022/05/24 03:29:26;;;;;;;17.83;9.60;;;14.40;66.70;;;;;;5007770;28;20760;-74
2022/05/24 03:31:52;;;;;;;14.30;8.60;;;14.30;66.80;;;;;;5010797;28;20480;-74
2022/05/24 03:34:17;;;;;;;17.23;7.97;;;14.40;62.90;;;;;;5011585;28;20392;-73
2022/05/24 03:36:43;;;;;;;13.35;7.75;;;14.40;60.30;;;;;;5012825;28;20393;-74
2022/05/24 03:39:08;;;;;;;13.35;7.88;;;14.50;60.60;;;;;;5012955;28;20446;-74
2022/05/24 03:41:35;;;;;;;16.23;7.70;;;14.40;61.80;;;;;;5011677;28;20455;-77
2022/05/24 03:44:01;;;;;;;13.70;8.18;;;14.50;62.00;;;;;;5011965;28;20393;-75
2022/05/24 03:46:26;;;;;;;17.63;7.77;;;14.50;63.20;;;;;;5016439;28;20747;-74
2022/05/24 03:48:52;;;;;;;12.13;6.60;;;14.50;61.40;;;;;;5012201;28;20396;-75
2022/05/24 03:51:18;;;;;;;12.07;6.72;;;14.60;60.50;;;;;;5008917;28;20485;-75
2022/05/24 03:53:43;;;;;;;19.33;7.65;;;14.60;58.30;;;;;;5011927;28;20412;-74
2022/05/24 03:56:09;;;;;;;15.40;7.10;;;14.60;58.60;;;;;;5012091;28;20399;-73
2022/05/24 03:58:34;;;;;;;13.97;6.93;;;14.60;58.50;;;;;;5012214;28;20393;-75
2022/05/24 04:01:00;;;;;;;13.63;6.40;;;14.60;58.50;;;;;;5011870;28;20401;-74
2022/05/24 04:03:26;;;;;;;14.03;7.10;;;14.50;59.40;;;;;;5008646;28;20416;-75
2022/05/24 04:05:51;;;;;;;14.68;7.05;;;14.60;59.80;;;;;;5011813;28;20401;-74
2022/05/24 04:08:19;;;;;;;13.32;6.78;;;14.60;59.20;;;;;;5027884;28;20404;-75
2022/05/24 04:10:45;;;;;;;13.70;7.00;;;14.60;59.60;;;;;;5011924;28;20413;-77
2022/05/24 04:13:11;;;;;;;14.70;8.18;;;14.60;60.40;;;;;;5012285;28;21145;-75
2022/05/24 04:15:37;;;;;;;13.67;7.70;;;14.60;60.60;;;;;;5006306;28;20461;-74
2022/05/24 04:18:02;;;;;;;19.20;7.30;;;14.70;57.80;;;;;;5013006;28;20404;-75
2022/05/24 04:20:29;;;;;;;17.13;6.50;;;14.90;56.30;;;;;;5015499;28;20494;-75
2022/05/24 04:22:56;;;;;;;14.85;6.25;;;14.90;54.90;;;;;;5015559;28;20833;-74
2022/05/24 04:25:22;;;;;;;22.60;7.15;;;14.90;54.70;;;;;;5016553;28;20447;-76
2022/05/24 04:27:48;;;;;;;9.95;6.20;;;15.00;54.90;;;;;;5017032;28;20989;-75
2022/05/24 04:30:15;;;;;;;13.32;6.28;;;15.00;54.40;;;;;;5018541;28;20459;-75
2022/05/24 04:32:41;;;;;;;15.68;6.20;;;15.00;54.40;;;;;;5011177;28;20865;-75
2022/05/24 04:35:07;;;;;;;10.10;5.90;;;15.10;52.20;;;;;;5010167;28;20479;-73
2022/05/24 04:37:33;;;;;;;17.02;6.18;;;15.00;54.20;;;;;;5011748;28;20401;-75
2022/05/24 04:39:58;;;;;;;17.57;5.80;;;15.00;54.00;;;;;;5001608;28;20777;-75
2022/05/24 04:42:24;;;;;;;18.10;6.10;;;14.90;55.50;;;;;;5027554;28;20729;-75
2022/05/24 04:44:54;;;;;;;12.32;6.10;;;14.90;56.30;;;;;;5010138;28;20396;-74
2022/05/24 04:47:21;;;;;;;15.60;5.78;;;14.90;56.80;;;;;;5041430;23;20435;-74
2022/05/24 04:49:53;;;;;;;10.68;6.10;;;14.90;57.00;;;;;;5031828;28;20506;-73
2022/05/24 04:52:20;;;;;;;14.05;6.13;;;14.90;57.20;;;;;;5019436;28;20403;-73
2022/05/24 04:54:46;;;;;;;10.65;5.60;;;14.90;58.60;;;;;;5028020;28;20478;-74
2022/05/24 04:57:13;;;;;;;11.80;5.50;;;14.90;57.10;;;;;;5014409;28;20527;-73
2022/05/24 04:59:39;;;;;;;13.07;5.18;;;14.90;58.60;;;;;;5009323;28;20417;-74
2022/05/24 05:02:05;;;;;;;13.23;6.00;;;14.90;57.20;;;;;;5009739;28;20991;-74
2022/05/24 05:04:31;;;;;;;14.27;5.53;;;14.90;58.20;;;;;;5010639;28;20761;-75
2022/05/24 05:06:56;;;;;;;16.88;5.70;;;14.80;59.50;;;;;;5010823;28;20488;-74
2022/05/24 05:09:22;;;;;;;12.18;5.40;;;14.70;60.70;;;;;;5010627;28;20414;-73
2022/05/24 05:11:48;;;;;;;18.50;4.47;;;14.80;58.60;;;;;;5008720;28;20404;-74
2022/05/24 05:14:14;;;;;;;11.60;4.80;;;14.90;59.20;;;;;;5010429;28;20388;-73
2022/05/24 05:16:40;;;;;;;16.20;4.45;;;14.70;57.60;;;;;;5010647;28;20411;-74
2022/05/24 05:19:09;;;;;;;13.55;4.57;;;14.70;56.60;;;;;;5009625;28;20483;-73
2022/05/24 05:21:36;;;;;;;12.90;3.80;;;14.70;56.60;;;;;;5009223;28;20861;-73
2022/05/24 05:24:04;;;;;;;9.10;3.90;;;14.70;55.50;;;;;;5009078;28;20694;-73
2022/05/24 05:26:30;;;;;;;12.13;4.25;;;14.70;55.10;;;;;;5010350;28;20392;-74
2022/05/24 05:28:56;;;;;;;11.02;4.50;;;14.60;52.20;;;;;;5007277;28;20707;-73
2022/05/24 05:31:23;;;;;;;14.50;4.40;;;14.60;54.00;;;;;;5006739;28;20408;-73
2022/05/24 05:33:50;;;;;;;15.52;3.90;;;14.50;57.20;;;;;;5012869;28;20454;-73
2022/05/24 05:36:16;;;;;;;13.15;4.07;;;14.40;57.00;;;;;;5011064;28;20405;-73
2022/05/24 05:38:48;;;;;;;12.18;5.07;;;14.40;54.60;;;;;;5009375;28;20429;-74
2022/05/24 05:41:19;;;;;;;10.47;3.83;;;14.40;57.50;;;;;;5010408;28;20393;-74
2022/05/24 05:43:46;;;;;;;17.52;5.13;;;14.40;59.20;;;;;;5010091;28;20416;-74
2022/05/24 05:46:13;;;;;;;8.95;3.70;;;14.30;61.80;;;;;;5011683;28;20969;-74
2022/05/24 05:48:39;;;;;;;8.47;3.70;;;14.10;60.70;;;;;;5010932;28;20831;-75
2022/05/24 05:51:06;;;;;;;12.63;4.07;;;14.00;63.60;;;;;;5009791;28;20889;-73
2022/05/24 05:53:32;;;;;;;16.33;3.70;;;14.00;64.40;;;;;;5010876;28;20444;-73
2022/05/24 05:55:58;;;;;;;12.88;4.00;;;14.10;61.80;;;;;;5010544;28;20425;-72
2022/05/24 05:58:24;;;;;;;7.82;4.18;;;14.00;66.50;;;;;;5009432;28;20405;-72
2022/05/24 06:00:49;;;;;;;11.10;4.00;;;13.90;68.00;;;;;;5010343;28;20519;-73
2022/05/24 06:03:16;;;;;;;12.73;4.30;;;13.90;65.80;;;;;;5010067;28;20392;-72
2022/05/24 06:05:48;;;;;;;9.63;3.72;;;13.90;69.00;;;;;;5008739;28;20405;-73
2022/05/24 06:08:14;;;;;;;9.63;3.47;;;14.00;64.20;;;;;;5009056;28;20421;-73
2022/05/24 06:10:40;;;;;;;10.10;3.50;;;13.90;62.00;;;;;;5009538;28;20408;-73
2022/05/24 06:13:06;;;;;;;7.85;3.30;;;13.90;66.60;;;;;;5009741;28;20455;-74
2022/05/24 06:15:33;;;;;;;12.23;3.45;;;13.90;64.80;;;;;;5010872;28;20405;-73
2022/05/24 06:17:59;;;;;;;9.40;3.50;;;13.80;67.10;;;;;;5010108;28;20395;-73
2022/05/24 06:20:28;;;;;;;11.02;3.67;;;13.80;67.00;;;;;;5010873;28;20475;-73
2022/05/24 06:22:55;;;;;;;14.55;3.63;;;13.80;68.70;;;;;;5007471;28;20408;-73
2022/05/24 06:25:22;;;;;;;12.90;3.70;;;13.80;68.90;;;;;;5009941;28;20444;-74
2022/05/24 06:27:49;;;;;;;8.87;3.33;;;13.80;70.80;;;;;;5008473;28;20396;-73
2022/05/24 06:30:15;;;;;;;11.52;4.32;;;13.90;73.20;;;;;;5009227;28;20451;-73
2022/05/24 06:32:40;;;;;;;12.27;3.67;;;14.10;72.00;;;;;;5009949;28;20476;-74
2022/05/24 06:35:07;;;;;;;10.10;3.40;;;14.10;68.60;;;;;;5009330;28;20985;-73
2022/05/24 06:37:33;;;;;;;8.70;3.30;;;14.00;66.60;;;;;;5009911;28;20577;-73
2022/05/24 06:39:59;;;;;;;9.53;3.17;;;14.00;66.20;;;;;;5001731;28;20497;-73
2022/05/24 06:42:24;;;;;;;9.63;3.07;;;14.00;68.20;;;;;;5009909;28;20885;-75
2022/05/24 06:44:50;;;;;;;12.38;3.53;;;14.00;71.70;;;;;;5012812;28;20393;-74
2022/05/24 06:47:16;;;;;;;11.43;3.42;;;14.00;72.00;;;;;;5016407;28;20417;-74
2022/05/24 06:49:42;;;;;;;7.00;3.70;;;14.00;72.60;;;;;;5014936;28;20413;-73
2022/05/24 06:52:08;;;;;;;10.57;3.40;;;14.10;71.40;;;;;;5012515;28;20396;-72
2022/05/24 06:54:35;;;;;;;7.60;3.08;;;14.20;71.30;;;;;;5004833;28;20414;-73
2022/05/24 06:57:01;;;;;;;8.70;3.15;;;14.20;68.70;;;;;;5005906;28;20424;-72
2022/05/24 07:02:26;;;;;;;8.10;3.33;;;14.40;68.00;;;;;;5007418;28;20474;-73
2022/05/24 07:05:09;;;;;;;10.17;3.30;;;14.70;68.30;;;;;;5007875;28;20493;-71
2022/05/24 07:07:37;;;;;;;11.13;3.90;;;15.10;61.80;;;;;;5009935;28;20836;-71
2022/05/24 07:10:05;;;;;;;9.30;3.13;;;15.40;57.70;;;;;;5007548;28;20996;-72
2022/05/24 07:12:31;;;;;;;6.47;2.83;;;15.70;57.20;;;;;;5006593;28;20433;-72
2022/05/24 07:14:58;;;;;;;8.07;2.80;;;15.90;53.70;;;;;;5008928;28;20950;-71
2022/05/24 07:17:24;;;;;;;9.88;2.97;;;16.00;50.20;;;;;;5008743;28;20404;-71
2022/05/24 07:19:50;;;;;;;11.88;3.00;;;16.10;50.40;;;;;;5014594;28;20491;-72
2022/05/24 07:22:16;;;;;;;7.80;2.92;;;16.20;46.80;;;;;;5010782;28;20801;-70
2022/05/24 07:24:42;;;;;;;9.23;2.80;;;16.30;46.60;;;;;;5010114;28;20409;-72
2022/05/24 07:27:12;;;;;;;8.98;3.17;;;16.50;45.40;;;;;;5008919;28;20417;-73
2022/05/24 07:29:38;;;;;;;7.93;2.70;;;16.70;43.10;;;;;;5007414;28;20413;-72
2022/05/24 07:32:05;;;;;;;6.70;3.00;;;16.70;42.00;;;;;;5010907;28;20427;-72
2022/05/24 07:34:32;;;;;;;7.57;3.17;;;16.60;42.80;;;;;;5009203;28;20491;-72
2022/05/24 07:36:57;;;;;;;14.90;3.58;;;16.50;44.70;;;;;;5010564;28;20404;-71
2022/05/24 07:39:23;;;;;;;7.87;3.10;;;16.70;42.70;;;;;;5010404;28;20423;-71
2022/05/24 07:47:17;;;;;;;8.32;3.67;;;17.00;44.10;;;;;;5008241;28;20436;-73
2022/05/24 07:49:43;;;;;;;8.85;3.03;;;17.00;39.50;;;;;;5010288;28;20417;-72
2022/05/24 07:52:08;;;;;;;8.93;3.95;;;17.00;40.80;;;;;;5014132;28;20396;-73
2022/05/24 07:54:34;;;;;;;9.30;3.10;;;17.20;39.70;;;;;;5017635;28;20409;-72
2022/05/24 07:57:01;;;;;;;11.73;4.03;;;17.20;35.80;;;;;;5016758;28;20417;-72
2022/05/24 07:59:27;;;;;;;10.02;3.50;;;17.00;36.70;;;;;;5010117;28;20481;-72
2022/05/24 08:01:53;;;;;;;11.77;3.80;;;17.00;38.30;;;;;;5020237;28;20690;-73
2022/05/24 08:04:20;;;;;;;6.68;3.10;;;17.20;38.60;;;;;;5021506;28;21174;-72
2022/05/24 08:06:46;;;;;;;14.40;4.30;;;17.20;35.80;;;;;;5021141;28;20466;-73
2022/05/24 08:09:12;;;;;;;8.05;3.50;;;16.90;35.60;;;;;;5020754;28;20405;-76
2022/05/24 08:11:37;;;;;;;9.00;3.20;;;16.70;36.00;;;;;;5015065;28;20439;-72
2022/05/24 08:14:06;;;;;;;11.30;3.30;;;16.40;36.80;;;;;;5015637;28;20415;-73
2022/05/24 08:16:32;;;;;;;12.35;4.22;;;16.50;36.20;;;;;;5014580;28;20417;-71
2022/05/24 08:19:02;;;;;;;8.82;3.70;;;16.70;35.30;;;;;;5016650;28;20409;-73
2022/05/24 08:21:29;;;;;;;9.23;3.80;;;16.90;35.40;;;;;;5013809;28;20406;-72
2022/05/24 08:23:55;;;;;;;10.85;3.47;;;17.30;34.60;;;;;;5009952;28;20531;-74
2022/05/24 08:26:21;;;;;;;9.90;3.50;;;17.60;34.50;;;;;;5011639;28;20412;-74
2022/05/24 08:28:51;;;;;;;10.33;3.27;;;17.70;32.00;;;;;;5010650;28;20751;-74
2022/05/24 08:31:17;;;;;;;7.45;3.25;;;17.70;31.30;;;;;;5013431;28;20495;-71
2022/05/24 08:33:44;;;;;;;10.55;3.55;;;17.90;29.70;;;;;;5013356;28;20409;-74
2022/05/24 08:36:10;;;;;;;5.63;2.63;;;17.90;29.90;;;;;;5009863;28;20496;-72
2022/05/24 08:38:37;;;;;;;8.87;3.00;;;17.90;28.20;;;;;;5008188;28;20405;-71
2022/05/24 08:41:09;;;;;;;9.25;3.15;;;17.70;29.10;;;;;;5008520;28;20496;-72
2022/05/24 08:43:46;;;;;;;7.22;2.83;;;17.40;30.50;;;;;;5009300;28;20440;-73
2022/05/24 08:49:07;;;;;;;8.90;2.73;;;17.30;30.50;;;;;;5006609;28;20578;-71
2022/05/24 08:51:39;;;;;;;6.95;3.00;;;17.60;29.00;;;;;;5012523;28;20442;-72
2022/05/24 08:54:18;;;;;;;10.52;2.60;;;17.90;26.90;;;;;;5006594;28;20501;-72
2022/05/24 08:56:55;;;;;;;4.90;2.08;;;18.10;27.80;;;;;;5003944;28;20812;-70
2022/05/24 08:59:35;;;;;;;6.47;2.05;;;18.30;24.00;;;;;;5009069;28;20401;-72
2022/05/24 09:02:03;;;;;;;5.68;2.45;;;18.20;24.70;;;;;;5008177;28;20399;-72
2022/05/24 09:04:30;;;;;;;6.30;2.07;;;18.00;26.10;;;;;;5005834;28;20411;-72
2022/05/24 09:07:08;;;;;;;7.45;2.28;;;17.70;24.60;;;;;;5005970;28;20471;-71
2022/05/24 09:10:01;;;;;;;2.80;1.80;;;17.50;26.80;;;;;;5009718;28;20417;-72
2022/05/24 09:12:44;;;;;;;10.80;1.80;;;17.70;26.10;;;;;;5002565;28;20397;-70
2022/05/24 09:15:40;;;;;;;4.90;1.75;;;17.80;24.50;;;;;;5005785;28;20411;-71
2022/05/24 09:18:33;;;;;;;4.20;1.50;;;17.80;25.40;;;;;;5005909;28;20408;-72
2022/05/24 09:21:00;;;;;;;3.40;1.53;;;17.80;24.90;;;;;;5008790;28;20536;-71
2022/05/24 09:23:45;;;;;;;4.78;1.88;;;17.80;24.10;;;;;;5005789;28;20442;-71
2022/05/24 09:26:20;;;;;;;7.28;1.88;;;17.70;26.10;;;;;;5008426;28;20400;-73
2022/05/24 09:28:55;;;;;;;7.40;1.60;;;17.70;25.30;;;;;;5015773;28;20410;-72
2022/05/24 09:31:38;;;;;;;6.57;1.50;;;17.70;26.70;;;;;;5002446;28;20416;-73
2022/05/24 09:34:12;;;;;;;6.30;1.83;;;18.00;24.00;;;;;;5007678;28;20747;-75
2022/05/24 09:36:41;;;;;;;5.35;1.88;;;18.10;24.60;;;;;;5006688;28;20821;-72
2022/05/24 09:39:36;;;;;;;6.15;1.77;;;18.20;22.80;;;;;;5006767;28;20926;-73
2022/05/24 09:42:09;;;;;;;3.90;2.13;;;17.80;24.50;;;;;;5002420;28;20432;-74
2022/05/24 09:45:09;;;;;;;5.17;1.93;;;17.80;24.60;;;;;;5008176;28;20842;-74
2022/05/24 09:47:41;;;;;;;4.10;1.92;;;18.00;24.90;;;;;;4999559;28;20421;-72
2022/05/24 09:50:34;;;;;;;4.37;2.00;;;18.10;23.80;;;;;;5002927;28;20632;-75
2022/05/24 09:53:02;;;;;;;7.35;2.10;;;18.30;22.80;;;;;;5005186;28;20768;-75
2022/05/24 09:55:49;;;;;;;5.00;1.70;;;18.40;22.50;;;;;;5007009;28;20424;-74
2022/05/24 09:58:29;;;;;;;3.53;1.80;;;18.20;22.60;;;;;;5001828;28;20909;-77
2022/05/24 10:01:09;;;;;;;4.45;2.00;;;17.80;23.20;;;;;;5006414;28;20408;-75
2022/05/24 10:03:41;;;;;;;3.28;1.83;;;17.50;25.10;;;;;;5010424;28;20544;-73
2022/05/24 10:06:28;;;;;;;5.23;1.87;;;17.60;25.60;;;;;;5009769;28;20747;-75
2022/05/24 10:09:00;;;;;;;4.47;1.90;;;17.80;24.30;;;;;;5007986;28;20408;-74
2022/05/24 10:11:50;;;;;;;2.63;1.60;;;18.10;22.10;;;;;;5009401;28;20416;-76
2022/05/24 10:14:36;;;;;;;3.55;1.90;;;18.30;22.70;;;;;;5007114;28;20786;-73
2022/05/24 10:17:07;;;;;;;6.50;1.80;;;18.40;21.00;;;;;;5006770;28;20443;-72
2022/05/24 10:19:48;;;;;;;6.27;1.60;;;18.40;21.40;;;;;;5010324;28;20408;-72
2022/05/24 10:22:22;;;;;;;4.78;1.90;;;18.40;21.80;;;;;;5009228;28;20405;-73
2022/05/24 10:25:08;;;;;;;3.63;2.20;;;18.40;22.30;;;;;;5008466;28;20405;-73
2022/05/24 10:27:58;;;;;;;4.35;2.10;;;18.30;22.30;;;;;;5010640;28;20439;-73
2022/05/24 10:30:37;;;;;;;8.30;2.20;;;18.40;23.00;;;;;;5007889;28;20413;-73
2022/05/24 10:39:34;;;;;;;3.97;2.25;;;18.90;21.70;;;;;;5008344;28;20928;-75
2022/05/24 10:42:13;;;;;;;5.13;2.50;;;19.40;20.20;;;;;;5011408;28;20444;-72
2022/05/24 10:44:45;;;;;;;5.97;2.78;;;19.80;18.70;;;;;;5013430;28;20964;-74
2022/05/24 10:47:40;;;;;;;3.50;1.90;;;20.00;16.20;;;;;;5039242;23;20431;-79
2022/05/24 10:50:25;;;;;;;5.20;2.00;;;19.90;16.20;;;;;;5033050;28;20426;-76
2022/05/24 10:53:11;;;;;;;4.00;2.15;;;19.60;16.40;;;;;;5036759;28;20402;-78
2022/05/24 10:55:49;;;;;;;3.13;1.80;;;19.60;16.60;;;;;;5042054;28;20422;-76
2022/05/24 10:58:16;;;;;;;4.65;2.10;;;19.80;17.40;;;;;;5045559;28;20405;-77
2022/05/24 11:00:53;;;;;;;6.10;2.30;;;20.00;17.00;;;;;;5043318;28;20461;-77
2022/05/24 11:03:25;;;;;;;3.40;1.80;;;20.10;17.30;;;;;;5058092;28;20421;-77
2022/05/24 11:05:56;;;;;;;6.60;1.92;;;20.20;15.80;;;;;;5048397;28;20395;-77
2022/05/24 11:08:55;;;;;;;5.25;1.80;;;20.00;16.40;;;;;;5033283;28;20409;-77
2022/05/24 11:11:42;;;;;;;5.38;2.10;;;20.10;15.90;;;;;;5037215;28;20415;-78
2022/05/24 11:14:25;;;;;;;2.53;1.60;;;20.10;16.20;;;;;;5036070;28;20388;-78
2022/05/24 11:16:52;;;;;;;7.97;2.20;;;20.00;15.10;;;;;;5038691;28;20399;-76
2022/05/24 11:19:36;;;;;;;9.38;1.95;;;20.10;15.50;;;;;;5037654;28;20387;-78
2022/05/24 11:22:09;;;;;;;5.07;1.70;;;20.40;15.20;;;;;;5037070;28;20457;-77
2022/05/24 11:25:06;;;;;;;7.55;1.98;;;20.70;14.30;;;;;;5041274;28;20406;-77
2022/05/24 11:27:37;;;;;;;4.00;1.63;;;20.60;14.20;;;;;;5038500;28;20438;-77
2022/05/24 11:30:13;;;;;;;3.50;1.80;;;20.50;14.10;;;;;;5036404;28;20429;-76
2022/05/24 11:32:50;;;;;;;2.60;1.48;;;20.50;14.10;;;;;;5038370;28;20406;-77
2022/05/24 11:35:19;;;;;;;5.85;1.23;;;20.20;14.40;;;;;;5037660;28;20490;-77
2022/05/24 11:37:47;;;;;;;5.70;1.33;;;20.10;13.90;;;;;;5038145;28;20494;-82
2022/05/24 11:40:34;;;;;;;2.15;1.10;;;20.00;14.00;;;;;;5037713;28;20395;-78
2022/05/24 11:43:10;;;;;;;2.80;1.50;;;19.80;13.90;;;;;;5038312;28;20387;-77
2022/05/24 11:46:14;;;;;;;4.47;1.40;;;19.70;14.50;;;;;;5036045;28;20398;-76
2022/05/24 11:48:49;;;;;;;2.65;1.05;;;19.50;14.20;;;;;;4995105;28;20414;-78
2022/05/24 11:51:36;;;;;;;3.30;1.60;;;19.50;15.00;;;;;;5035222;28;20415;-78
2022/05/24 11:54:05;;;;;;;2.05;1.40;;;19.70;14.60;;;;;;5038408;28;20474;-78
2022/05/24 11:56:32;;;;;;;3.28;1.50;;;19.50;15.00;;;;;;5040595;28;20411;-79
2022/05/24 11:59:04;;;;;;;2.78;1.70;;;19.30;15.80;;;;;;5038916;28;20399;-78
2022/05/24 12:01:45;;;;;;;4.10;1.40;;;19.30;16.50;;;;;;5053392;28;20426;-78
2022/05/24 12:10:24;;;;;;;4.07;1.70;;;19.50;15.50;;;;;;5044020;28;20433;-75
2022/05/24 12:13:03;;;;;;;2.40;1.27;;;19.80;15.10;;;;;;5046894;28;20418;-77
2022/05/24 12:15:34;;;;;;;3.22;1.50;;;20.20;13.20;;;;;;5044869;28;20799;-77
2022/05/24 12:18:00;;;;;;;4.03;1.30;;;20.20;12.90;;;;;;5039472;28;20625;-79
2022/05/24 12:20:34;;;;;;;4.95;1.50;;;20.40;12.30;;;;;;5038967;28;20406;-77
2022/05/24 12:23:14;;;;;;;2.90;1.50;;;20.20;12.50;;;;;;5040096;28;20883;-79
2022/05/24 12:26:02;;;;;;;3.47;1.90;;;20.00;13.50;;;;;;5041431;28;20395;-78
2022/05/24 12:28:36;;;;;;;5.00;1.70;;;20.30;13.00;;;;;;5037891;28;20406;-78
2022/05/24 12:31:22;;;;;;;4.60;1.50;;;20.60;12.90;;;;;;5039092;28;20421;-79
2022/05/24 12:34:12;;;;;;;5.20;1.90;;;20.40;12.40;;;;;;5037426;28;20404;-79
2022/05/24 12:36:40;;;;;;;4.97;1.70;;;20.30;13.00;;;;;;5035318;28;20915;-78
2022/05/24 12:39:12;;;;;;;4.60;1.70;;;20.50;13.80;;;;;;5042285;28;20423;-79
2022/05/24 12:41:55;;;;;;;7.85;1.90;;;20.80;13.50;;;;;;5030827;28;20419;-78
2022/05/24 12:44:31;;;;;;;3.53;1.45;;;21.10;12.90;;;;;;5041337;28;20401;-78
2022/05/24 12:47:06;;;;;;;6.35;1.90;;;20.90;13.10;;;;;;5047333;28;20961;-78
2022/05/24 12:49:48;;;;;;;2.47;1.60;;;20.80;13.40;;;;;;5041640;28;20427;-77
2022/05/24 12:52:18;;;;;;;4.10;1.63;;;20.60;12.00;;;;;;5044231;28;20407;-78
2022/05/24 12:54:49;;;;;;;3.00;1.70;;;20.30;13.00;;;;;;5036198;28;20403;-77
2022/05/24 12:57:23;;;;;;;4.07;1.50;;;20.20;13.40;;;;;;5061730;28;20390;-78
2022/05/24 12:59:56;;;;;;;4.47;1.70;;;20.00;14.20;;;;;;5047676;28;20399;-78
2022/05/24 13:02:47;;;;;;;3.42;1.50;;;20.10;14.80;;;;;;5047213;28;20407;-78
2022/05/24 13:05:15;;;;;;;2.80;1.50;;;20.30;13.40;;;;;;5039914;28;20706;-78
2022/05/24 13:07:58;;;;;;;5.50;1.52;;;20.40;14.50;;;;;;5039572;28;20399;-79
2022/05/24 13:10:28;;;;;;;4.75;1.52;;;20.40;14.60;;;;;;5031824;28;20422;-79
2022/05/24 13:13:09;;;;;;;3.30;1.80;;;20.40;13.50;;;;;;5040753;28;20414;-79
2022/05/24 13:15:49;;;;;;;2.90;1.70;;;20.40;14.20;;;;;;5030582;28;20728;-79
2022/05/24 13:18:23;;;;;;;3.75;1.40;;;20.80;13.50;;;;;;5038345;28;20482;-82
2022/05/24 13:21:03;;;;;;;3.50;1.40;;;21.40;12.50;;;;;;5033651;28;20419;-79
2022/05/24 13:23:36;;;;;;;4.85;1.25;;;22.10;10.40;;;;;;5035761;28;20405;-81
2022/05/24 13:26:01;;;;;;;4.90;1.67;;;22.50;9.10;;;;;;5037010;28;20414;-81
2022/05/24 13:28:53;;;;;;;6.68;1.58;;;22.30;10.00;;;;;;5041681;28;20489;-79
2022/05/24 13:34:34;;;;;;;4.07;1.42;;;21.30;11.50;;;;;;5033747;28;20410;-80